sensor_id;sensor_type;location;lat;lon;timestamp;P1;durP1;ratioP1;P2;durP2;ratioP2
11344;SDS011;5727;42.600;23.028;2023-04-01T00:00:58;27.30;;;15.63;;
11344;SDS011;5727;42.600;23.028;2023-04-01T00:03:27;34.50;;;15.97;;
11344;SDS011;5727;42.600;23.028;2023-04-01T00:05:54;25.30;;;13.50;;
11344;SDS011;5727;42.600;23.028;2023-04-01T00:08:21;24.90;;;12.90;;
11344;SDS011;5727;42.600;23.028;2023-04-01T00:10:49;27.70;;;13.63;;
11344;SDS011;5727;42.600;23.028;2023-04-01T00:13:16;29.53;;;15.60;;
11344;SDS011;5727;42.600;23.028;2023-04-01T00:15:43;25.47;;;14.57;;
11344;SDS011;5727;42.600;23.028;2023-04-01T00:18:11;29.30;;;13.97;;
11344;SDS011;5727;42.600;23.028;2023-04-01T00:20:38;29.47;;;16.37;;
11344;SDS011;5727;42.600;23.028;2023-04-01T00:23:09;26.53;;;15.97;;
11344;SDS011;5727;42.600;23.028;2023-04-01T00:25:35;28.63;;;14.37;;
11344;SDS011;5727;42.600;23.028;2023-04-01T00:28:03;25.93;;;14.23;;
11344;SDS011;5727;42.600;23.028;2023-04-01T00:30:30;27.83;;;14.23;;
11344;SDS011;5727;42.600;23.028;2023-04-01T00:32:57;25.10;;;14.27;;
11344;SDS011;5727;42.600;23.028;2023-04-01T00:35:24;21.50;;;10.00;;
11344;SDS011;5727;42.600;23.028;2023-04-01T00:37:50;18.53;;;10.13;;
11344;SDS011;5727;42.600;23.028;2023-04-01T00:40:23;25.53;;;10.03;;
11344;SDS011;5727;42.600;23.028;2023-04-01T00:42:52;23.67;;;12.17;;
11344;SDS011;5727;42.600;23.028;2023-04-01T00:45:25;11.30;;;6.23;;
11344;SDS011;5727;42.600;23.028;2023-04-01T00:48:02;11.53;;;5.37;;
11344;SDS011;5727;42.600;23.028;2023-04-01T00:50:32;15.37;;;7.63;;
11344;SDS011;5727;42.600;23.028;2023-04-01T00:53:01;12.87;;;7.50;;
11344;SDS011;5727;42.600;23.028;2023-04-01T00:55:30;17.40;;;7.67;;
11344;SDS011;5727;42.600;23.028;2023-04-01T00:58:00;15.30;;;9.50;;
11344;SDS011;5727;42.600;23.028;2023-04-01T01:00:31;9.97;;;4.73;;
11344;SDS011;5727;42.600;23.028;2023-04-01T01:02:59;12.07;;;5.73;;
11344;SDS011;5727;42.600;23.028;2023-04-01T01:05:30;11.83;;;6.80;;
11344;SDS011;5727;42.600;23.028;2023-04-01T01:08:12;17.63;;;8.70;;
11344;SDS011;5727;42.600;23.028;2023-04-01T01:10:46;16.83;;;9.47;;
11344;SDS011;5727;42.600;23.028;2023-04-01T01:13:16;15.13;;;8.90;;
11344;SDS011;5727;42.600;23.028;2023-04-01T01:15:49;16.43;;;8.97;;
11344;SDS011;5727;42.600;23.028;2023-04-01T01:18:22;11.70;;;5.87;;
11344;SDS011;5727;42.600;23.028;2023-04-01T01:24:10;12.83;;;7.10;;
11344;SDS011;5727;42.600;23.028;2023-04-01T01:26:49;11.23;;;5.37;;
11344;SDS011;5727;42.600;23.028;2023-04-01T01:29:34;8.77;;;4.87;;
11344;SDS011;5727;42.600;23.028;2023-04-01T01:32:13;9.73;;;5.67;;
11344;SDS011;5727;42.600;23.028;2023-04-01T01:34:47;10.63;;;5.77;;
11344;SDS011;5727;42.600;23.028;2023-04-01T01:37:23;8.87;;;5.10;;
11344;SDS011;5727;42.600;23.028;2023-04-01T01:39:54;8.90;;;5.10;;
11344;SDS011;5727;42.600;23.028;2023-04-01T01:42:24;6.40;;;3.27;;
11344;SDS011;5727;42.600;23.028;2023-04-01T01:44:52;6.57;;;2.80;;
11344;SDS011;5727;42.600;23.028;2023-04-01T01:47:21;2.90;;;2.20;;
11344;SDS011;5727;42.600;23.028;2023-04-01T01:49:49;4.97;;;2.80;;
11344;SDS011;5727;42.600;23.028;2023-04-01T01:52:17;5.17;;;2.60;;
11344;SDS011;5727;42.600;23.028;2023-04-01T01:54:49;2.73;;;2.10;;
11344;SDS011;5727;42.600;23.028;2023-04-01T01:57:16;3.50;;;1.87;;
11344;SDS011;5727;42.600;23.028;2023-04-01T01:59:45;5.57;;;2.23;;
11344;SDS011;5727;42.600;23.028;2023-04-01T02:02:14;3.27;;;2.00;;
11344;SDS011;5727;42.600;23.028;2023-04-01T02:04:43;4.77;;;2.30;;
11344;SDS011;5727;42.600;23.028;2023-04-01T02:07:13;4.00;;;2.00;;
11344;SDS011;5727;42.600;23.028;2023-04-01T02:09:44;4.37;;;1.80;;
11344;SDS011;5727;42.600;23.028;2023-04-01T02:12:13;4.50;;;1.93;;
11344;SDS011;5727;42.600;23.028;2023-04-01T02:14:43;2.97;;;1.80;;
11344;SDS011;5727;42.600;23.028;2023-04-01T02:17:14;3.93;;;1.70;;
11344;SDS011;5727;42.600;23.028;2023-04-01T02:19:43;4.43;;;2.30;;
11344;SDS011;5727;42.600;23.028;2023-04-01T02:22:14;4.57;;;1.87;;
11344;SDS011;5727;42.600;23.028;2023-04-01T02:24:47;2.00;;;1.80;;
11344;SDS011;5727;42.600;23.028;2023-04-01T02:27:18;4.27;;;1.70;;
11344;SDS011;5727;42.600;23.028;2023-04-01T02:29:45;5.57;;;1.80;;
11344;SDS011;5727;42.600;23.028;2023-04-01T02:32:13;2.67;;;1.70;;
11344;SDS011;5727;42.600;23.028;2023-04-01T02:34:42;3.50;;;2.03;;
11344;SDS011;5727;42.600;23.028;2023-04-01T02:37:10;5.87;;;2.10;;
11344;SDS011;5727;42.600;23.028;2023-04-01T02:39:37;2.63;;;1.83;;
11344;SDS011;5727;42.600;23.028;2023-04-01T02:42:04;2.00;;;1.63;;
11344;SDS011;5727;42.600;23.028;2023-04-01T02:44:33;3.07;;;1.80;;
11344;SDS011;5727;42.600;23.028;2023-04-01T02:47:03;2.83;;;1.60;;
11344;SDS011;5727;42.600;23.028;2023-04-01T02:49:29;2.07;;;1.70;;
11344;SDS011;5727;42.600;23.028;2023-04-01T02:51:56;4.70;;;1.93;;
11344;SDS011;5727;42.600;23.028;2023-04-01T02:54:23;3.33;;;1.90;;
11344;SDS011;5727;42.600;23.028;2023-04-01T02:56:49;3.30;;;1.90;;
11344;SDS011;5727;42.600;23.028;2023-04-01T02:59:16;5.17;;;2.23;;
11344;SDS011;5727;42.600;23.028;2023-04-01T03:01:44;3.53;;;1.80;;
11344;SDS011;5727;42.600;23.028;2023-04-01T03:04:11;3.03;;;1.60;;
11344;SDS011;5727;42.600;23.028;2023-04-01T03:06:38;4.20;;;1.83;;
11344;SDS011;5727;42.600;23.028;2023-04-01T03:09:04;4.90;;;2.17;;
11344;SDS011;5727;42.600;23.028;2023-04-01T03:11:31;4.20;;;2.20;;
11344;SDS011;5727;42.600;23.028;2023-04-01T03:13:57;3.83;;;2.70;;
11344;SDS011;5727;42.600;23.028;2023-04-01T03:16:24;4.23;;;2.23;;
11344;SDS011;5727;42.600;23.028;2023-04-01T03:18:52;4.23;;;2.70;;
11344;SDS011;5727;42.600;23.028;2023-04-01T03:21:22;6.40;;;2.70;;
11344;SDS011;5727;42.600;23.028;2023-04-01T03:23:50;4.67;;;2.70;;
11344;SDS011;5727;42.600;23.028;2023-04-01T03:26:17;5.70;;;3.00;;
11344;SDS011;5727;42.600;23.028;2023-04-01T03:28:44;4.50;;;3.30;;
11344;SDS011;5727;42.600;23.028;2023-04-01T03:31:11;6.80;;;3.30;;
11344;SDS011;5727;42.600;23.028;2023-04-01T03:33:38;3.53;;;2.60;;
11344;SDS011;5727;42.600;23.028;2023-04-01T03:36:06;3.60;;;2.30;;
11344;SDS011;5727;42.600;23.028;2023-04-01T03:38:33;3.83;;;2.50;;
11344;SDS011;5727;42.600;23.028;2023-04-01T03:41:00;6.80;;;2.93;;
11344;SDS011;5727;42.600;23.028;2023-04-01T03:43:27;4.63;;;2.70;;
11344;SDS011;5727;42.600;23.028;2023-04-01T03:45:54;4.93;;;2.40;;
11344;SDS011;5727;42.600;23.028;2023-04-01T03:48:22;5.27;;;2.43;;
11344;SDS011;5727;42.600;23.028;2023-04-01T03:50:50;3.90;;;1.90;;
11344;SDS011;5727;42.600;23.028;2023-04-01T03:53:18;2.60;;;1.90;;
11344;SDS011;5727;42.600;23.028;2023-04-01T03:55:45;4.20;;;2.13;;
11344;SDS011;5727;42.600;23.028;2023-04-01T03:58:12;3.43;;;2.00;;
11344;SDS011;5727;42.600;23.028;2023-04-01T04:00:38;6.93;;;2.43;;
11344;SDS011;5727;42.600;23.028;2023-04-01T04:03:05;3.23;;;1.80;;
11344;SDS011;5727;42.600;23.028;2023-04-01T04:05:32;4.33;;;2.00;;
11344;SDS011;5727;42.600;23.028;2023-04-01T04:07:59;4.50;;;2.00;;
11344;SDS011;5727;42.600;23.028;2023-04-01T04:10:27;5.37;;;2.23;;
11344;SDS011;5727;42.600;23.028;2023-04-01T04:12:54;4.73;;;2.30;;
11344;SDS011;5727;42.600;23.028;2023-04-01T04:15:21;4.97;;;1.87;;
11344;SDS011;5727;42.600;23.028;2023-04-01T04:17:48;8.70;;;2.50;;
11344;SDS011;5727;42.600;23.028;2023-04-01T04:20:15;4.10;;;2.03;;
11344;SDS011;5727;42.600;23.028;2023-04-01T04:22:42;3.90;;;1.97;;
11344;SDS011;5727;42.600;23.028;2023-04-01T04:25:08;6.07;;;2.00;;
11344;SDS011;5727;42.600;23.028;2023-04-01T04:27:36;4.30;;;2.27;;
11344;SDS011;5727;42.600;23.028;2023-04-01T04:30:04;5.40;;;2.07;;
11344;SDS011;5727;42.600;23.028;2023-04-01T04:32:32;5.93;;;2.00;;
11344;SDS011;5727;42.600;23.028;2023-04-01T04:34:59;6.30;;;2.17;;
11344;SDS011;5727;42.600;23.028;2023-04-01T04:37:25;5.70;;;1.90;;
11344;SDS011;5727;42.600;23.028;2023-04-01T04:39:53;6.27;;;2.70;;
11344;SDS011;5727;42.600;23.028;2023-04-01T04:42:20;4.97;;;2.50;;
11344;SDS011;5727;42.600;23.028;2023-04-01T04:44:48;5.10;;;2.07;;
11344;SDS011;5727;42.600;23.028;2023-04-01T04:47:14;5.90;;;2.40;;
11344;SDS011;5727;42.600;23.028;2023-04-01T04:49:41;8.23;;;2.60;;
11344;SDS011;5727;42.600;23.028;2023-04-01T04:52:08;3.80;;;2.40;;
11344;SDS011;5727;42.600;23.028;2023-04-01T04:54:34;4.93;;;2.20;;
11344;SDS011;5727;42.600;23.028;2023-04-01T04:57:01;5.70;;;2.30;;
11344;SDS011;5727;42.600;23.028;2023-04-01T04:59:28;4.57;;;2.40;;
11344;SDS011;5727;42.600;23.028;2023-04-01T05:01:56;5.97;;;2.43;;
11344;SDS011;5727;42.600;23.028;2023-04-01T05:04:23;3.63;;;2.13;;
11344;SDS011;5727;42.600;23.028;2023-04-01T05:06:50;4.07;;;2.13;;
11344;SDS011;5727;42.600;23.028;2023-04-01T05:09:17;7.30;;;2.60;;
11344;SDS011;5727;42.600;23.028;2023-04-01T05:11:43;4.67;;;2.30;;
11344;SDS011;5727;42.600;23.028;2023-04-01T05:14:12;3.50;;;2.43;;
11344;SDS011;5727;42.600;23.028;2023-04-01T05:16:39;3.33;;;2.30;;
11344;SDS011;5727;42.600;23.028;2023-04-01T05:19:07;3.87;;;2.53;;
11344;SDS011;5727;42.600;23.028;2023-04-01T05:21:34;4.37;;;2.50;;
11344;SDS011;5727;42.600;23.028;2023-04-01T05:24:01;3.40;;;2.00;;
11344;SDS011;5727;42.600;23.028;2023-04-01T05:26:27;5.63;;;2.27;;
11344;SDS011;5727;42.600;23.028;2023-04-01T05:28:54;5.93;;;2.17;;
11344;SDS011;5727;42.600;23.028;2023-04-01T05:31:21;2.63;;;2.17;;
11344;SDS011;5727;42.600;23.028;2023-04-01T05:33:49;2.93;;;1.70;;
11344;SDS011;5727;42.600;23.028;2023-04-01T05:36:17;3.27;;;1.87;;
11344;SDS011;5727;42.600;23.028;2023-04-01T05:38:43;6.40;;;1.87;;
11344;SDS011;5727;42.600;23.028;2023-04-01T05:41:12;4.57;;;2.00;;
11344;SDS011;5727;42.600;23.028;2023-04-01T05:43:39;3.33;;;2.13;;
11344;SDS011;5727;42.600;23.028;2023-04-01T05:46:07;5.93;;;2.10;;
11344;SDS011;5727;42.600;23.028;2023-04-01T05:48:34;3.63;;;2.10;;
11344;SDS011;5727;42.600;23.028;2023-04-01T05:51:01;2.80;;;1.83;;
11344;SDS011;5727;42.600;23.028;2023-04-01T05:53:29;3.63;;;2.00;;
11344;SDS011;5727;42.600;23.028;2023-04-01T05:55:56;5.87;;;2.00;;
11344;SDS011;5727;42.600;23.028;2023-04-01T05:58:23;7.43;;;2.10;;
11344;SDS011;5727;42.600;23.028;2023-04-01T06:00:50;3.93;;;1.93;;
11344;SDS011;5727;42.600;23.028;2023-04-01T06:03:16;6.77;;;2.20;;
11344;SDS011;5727;42.600;23.028;2023-04-01T06:05:43;2.57;;;1.67;;
11344;SDS011;5727;42.600;23.028;2023-04-01T06:08:11;3.57;;;1.97;;
11344;SDS011;5727;42.600;23.028;2023-04-01T06:10:48;4.40;;;2.33;;
11344;SDS011;5727;42.600;23.028;2023-04-01T06:13:35;3.37;;;1.63;;
11344;SDS011;5727;42.600;23.028;2023-04-01T06:16:15;5.63;;;2.17;;
11344;SDS011;5727;42.600;23.028;2023-04-01T06:18:50;2.10;;;1.87;;
11344;SDS011;5727;42.600;23.028;2023-04-01T06:21:28;4.77;;;2.07;;
11344;SDS011;5727;42.600;23.028;2023-04-01T06:24:10;5.50;;;2.07;;
11344;SDS011;5727;42.600;23.028;2023-04-01T06:26:49;4.13;;;1.87;;
11344;SDS011;5727;42.600;23.028;2023-04-01T06:29:29;7.73;;;2.60;;
11344;SDS011;5727;42.600;23.028;2023-04-01T06:32:19;7.17;;;2.10;;
11344;SDS011;5727;42.600;23.028;2023-04-01T06:35:03;4.03;;;2.83;;
11344;SDS011;5727;42.600;23.028;2023-04-01T06:41:00;7.93;;;2.40;;
11344;SDS011;5727;42.600;23.028;2023-04-01T06:43:44;4.90;;;2.20;;
11344;SDS011;5727;42.600;23.028;2023-04-01T06:46:29;5.33;;;1.90;;
11344;SDS011;5727;42.600;23.028;2023-04-01T06:49:19;2.83;;;2.17;;
11344;SDS011;5727;42.600;23.028;2023-04-01T06:51:57;3.73;;;2.30;;
11344;SDS011;5727;42.600;23.028;2023-04-01T06:54:29;7.57;;;2.20;;
11344;SDS011;5727;42.600;23.028;2023-04-01T06:57:00;5.63;;;2.10;;
11344;SDS011;5727;42.600;23.028;2023-04-01T06:59:33;5.40;;;1.90;;
11344;SDS011;5727;42.600;23.028;2023-04-01T07:02:04;6.77;;;2.10;;
11344;SDS011;5727;42.600;23.028;2023-04-01T07:04:40;6.10;;;2.07;;
11344;SDS011;5727;42.600;23.028;2023-04-01T07:07:12;4.93;;;1.47;;
11344;SDS011;5727;42.600;23.028;2023-04-01T07:09:48;2.87;;;1.77;;
11344;SDS011;5727;42.600;23.028;2023-04-01T07:12:19;3.83;;;1.97;;
11344;SDS011;5727;42.600;23.028;2023-04-01T07:14:55;7.87;;;2.20;;
11344;SDS011;5727;42.600;23.028;2023-04-01T07:17:25;3.90;;;2.03;;
11344;SDS011;5727;42.600;23.028;2023-04-01T07:19:58;3.37;;;1.63;;
11344;SDS011;5727;42.600;23.028;2023-04-01T07:22:32;2.90;;;1.87;;
11344;SDS011;5727;42.600;23.028;2023-04-01T07:25:01;4.33;;;1.60;;
11344;SDS011;5727;42.600;23.028;2023-04-01T07:27:31;6.80;;;1.70;;
11344;SDS011;5727;42.600;23.028;2023-04-01T07:29:59;4.17;;;1.90;;
11344;SDS011;5727;42.600;23.028;2023-04-01T07:32:31;5.57;;;1.87;;
11344;SDS011;5727;42.600;23.028;2023-04-01T07:35:08;5.00;;;2.10;;
11344;SDS011;5727;42.600;23.028;2023-04-01T07:37:45;4.10;;;2.13;;
11344;SDS011;5727;42.600;23.028;2023-04-01T07:40:26;3.27;;;1.97;;
11344;SDS011;5727;42.600;23.028;2023-04-01T07:43:11;8.40;;;3.10;;
11344;SDS011;5727;42.600;23.028;2023-04-01T07:45:53;6.23;;;2.43;;
11344;SDS011;5727;42.600;23.028;2023-04-01T07:48:30;3.77;;;2.17;;
11344;SDS011;5727;42.600;23.028;2023-04-01T07:51:02;4.50;;;2.10;;
11344;SDS011;5727;42.600;23.028;2023-04-01T07:53:35;7.40;;;2.07;;
11344;SDS011;5727;42.600;23.028;2023-04-01T07:56:08;3.33;;;1.70;;
11344;SDS011;5727;42.600;23.028;2023-04-01T07:58:41;3.43;;;1.80;;
11344;SDS011;5727;42.600;23.028;2023-04-01T08:01:20;7.70;;;2.30;;
11344;SDS011;5727;42.600;23.028;2023-04-01T08:04:01;6.00;;;2.30;;
11344;SDS011;5727;42.600;23.028;2023-04-01T08:06:43;4.37;;;1.60;;
11344;SDS011;5727;42.600;23.028;2023-04-01T08:09:15;6.47;;;2.70;;
11344;SDS011;5727;42.600;23.028;2023-04-01T08:11:55;4.03;;;1.93;;
11344;SDS011;5727;42.600;23.028;2023-04-01T08:14:32;6.47;;;2.40;;
11344;SDS011;5727;42.600;23.028;2023-04-01T08:17:13;5.73;;;1.90;;
11344;SDS011;5727;42.600;23.028;2023-04-01T08:19:49;6.60;;;1.97;;
11344;SDS011;5727;42.600;23.028;2023-04-01T08:22:29;5.27;;;2.00;;
11344;SDS011;5727;42.600;23.028;2023-04-01T08:25:00;4.57;;;1.67;;
11344;SDS011;5727;42.600;23.028;2023-04-01T08:27:34;3.33;;;1.57;;
11344;SDS011;5727;42.600;23.028;2023-04-01T08:30:05;5.07;;;2.00;;
11344;SDS011;5727;42.600;23.028;2023-04-01T08:32:44;5.20;;;1.60;;
11344;SDS011;5727;42.600;23.028;2023-04-01T08:35:18;4.80;;;1.57;;
11344;SDS011;5727;42.600;23.028;2023-04-01T08:37:52;6.03;;;1.67;;
11344;SDS011;5727;42.600;23.028;2023-04-01T08:43:29;4.53;;;1.47;;
11344;SDS011;5727;42.600;23.028;2023-04-01T08:46:17;4.73;;;1.83;;
11344;SDS011;5727;42.600;23.028;2023-04-01T08:49:18;3.17;;;1.30;;
11344;SDS011;5727;42.600;23.028;2023-04-01T08:52:07;5.30;;;1.70;;
11344;SDS011;5727;42.600;23.028;2023-04-01T08:54:56;6.40;;;1.93;;
11344;SDS011;5727;42.600;23.028;2023-04-01T08:57:43;6.07;;;2.07;;
11344;SDS011;5727;42.600;23.028;2023-04-01T09:00:20;4.23;;;1.63;;
11344;SDS011;5727;42.600;23.028;2023-04-01T09:03:10;7.50;;;2.97;;
11344;SDS011;5727;42.600;23.028;2023-04-01T09:08:55;6.07;;;2.33;;
11344;SDS011;5727;42.600;23.028;2023-04-01T09:11:33;3.80;;;1.50;;
11344;SDS011;5727;42.600;23.028;2023-04-01T09:14:34;5.27;;;1.40;;
11344;SDS011;5727;42.600;23.028;2023-04-01T09:20:42;6.13;;;1.93;;
11344;SDS011;5727;42.600;23.028;2023-04-01T09:26:15;5.67;;;2.00;;
11344;SDS011;5727;42.600;23.028;2023-04-01T09:28:56;5.83;;;2.03;;
11344;SDS011;5727;42.600;23.028;2023-04-01T09:35:02;5.47;;;2.10;;
11344;SDS011;5727;42.600;23.028;2023-04-01T09:37:50;7.90;;;2.07;;
11344;SDS011;5727;42.600;23.028;2023-04-01T09:40:22;5.00;;;2.07;;
11344;SDS011;5727;42.600;23.028;2023-04-01T09:43:12;5.03;;;2.00;;
11344;SDS011;5727;42.600;23.028;2023-04-01T09:46:04;7.83;;;1.93;;
11344;SDS011;5727;42.600;23.028;2023-04-01T09:51:44;4.90;;;1.70;;
11344;SDS011;5727;42.600;23.028;2023-04-01T09:54:26;4.57;;;1.90;;
11344;SDS011;5727;42.600;23.028;2023-04-01T10:00:05;9.27;;;2.30;;
11344;SDS011;5727;42.600;23.028;2023-04-01T10:08:52;6.33;;;3.73;;
11344;SDS011;5727;42.600;23.028;2023-04-01T10:12:03;10.10;;;3.00;;
11344;SDS011;5727;42.600;23.028;2023-04-01T10:18:02;9.67;;;3.47;;
11344;SDS011;5727;42.600;23.028;2023-04-01T10:20:42;4.00;;;1.80;;
11344;SDS011;5727;42.600;23.028;2023-04-01T10:23:23;6.57;;;3.13;;
11344;SDS011;5727;42.600;23.028;2023-04-01T10:26:19;6.57;;;2.33;;
11344;SDS011;5727;42.600;23.028;2023-04-01T10:29:18;8.37;;;2.00;;
11344;SDS011;5727;42.600;23.028;2023-04-01T10:32:22;8.90;;;3.07;;
11344;SDS011;5727;42.600;23.028;2023-04-01T10:38:41;8.37;;;1.77;;
11344;SDS011;5727;42.600;23.028;2023-04-01T10:41:35;6.13;;;2.50;;
11344;SDS011;5727;42.600;23.028;2023-04-01T10:47:48;6.67;;;1.97;;
11344;SDS011;5727;42.600;23.028;2023-04-01T10:50:42;3.63;;;1.50;;
11344;SDS011;5727;42.600;23.028;2023-04-01T10:56:46;4.10;;;2.00;;
11344;SDS011;5727;42.600;23.028;2023-04-01T11:24:31;4.77;;;2.00;;
11344;SDS011;5727;42.600;23.028;2023-04-01T11:27:15;3.93;;;2.20;;
11344;SDS011;5727;42.600;23.028;2023-04-01T11:30:12;5.60;;;2.43;;
11344;SDS011;5727;42.600;23.028;2023-04-01T11:33:06;4.43;;;2.73;;
11344;SDS011;5727;42.600;23.028;2023-04-01T11:38:38;6.93;;;3.73;;
11344;SDS011;5727;42.600;23.028;2023-04-01T11:41:28;6.30;;;3.07;;
11344;SDS011;5727;42.600;23.028;2023-04-01T11:44:11;8.80;;;4.57;;
11344;SDS011;5727;42.600;23.028;2023-04-01T11:46:46;5.37;;;3.20;;
11344;SDS011;5727;42.600;23.028;2023-04-01T11:49:29;7.00;;;3.97;;
11344;SDS011;5727;42.600;23.028;2023-04-01T11:52:20;7.33;;;3.70;;
11344;SDS011;5727;42.600;23.028;2023-04-01T11:54:56;4.63;;;3.87;;
11344;SDS011;5727;42.600;23.028;2023-04-01T12:07:06;4.77;;;3.30;;
11344;SDS011;5727;42.600;23.028;2023-04-01T12:09:44;3.53;;;2.90;;
11344;SDS011;5727;42.600;23.028;2023-04-01T12:12:20;6.00;;;3.07;;
11344;SDS011;5727;42.600;23.028;2023-04-01T12:15:00;5.07;;;2.87;;
11344;SDS011;5727;42.600;23.028;2023-04-01T12:17:41;8.13;;;4.70;;
11344;SDS011;5727;42.600;23.028;2023-04-01T12:20:20;7.33;;;3.87;;
11344;SDS011;5727;42.600;23.028;2023-04-01T12:22:56;5.17;;;4.07;;
11344;SDS011;5727;42.600;23.028;2023-04-01T12:25:37;9.53;;;5.57;;
11344;SDS011;5727;42.600;23.028;2023-04-01T12:28:19;5.73;;;4.47;;
11344;SDS011;5727;42.600;23.028;2023-04-01T12:30:59;4.20;;;3.60;;
11344;SDS011;5727;42.600;23.028;2023-04-01T12:33:45;3.97;;;2.90;;
11344;SDS011;5727;42.600;23.028;2023-04-01T12:36:34;2.40;;;2.20;;
11344;SDS011;5727;42.600;23.028;2023-04-01T12:41:59;1.97;;;1.80;;
11344;SDS011;5727;42.600;23.028;2023-04-01T12:50:47;2.53;;;1.97;;
11344;SDS011;5727;42.600;23.028;2023-04-01T12:53:29;1.90;;;1.70;;
11344;SDS011;5727;42.600;23.028;2023-04-01T12:56:11;2.50;;;2.10;;
11344;SDS011;5727;42.600;23.028;2023-04-01T12:58:51;2.80;;;2.37;;
11344;SDS011;5727;42.600;23.028;2023-04-01T13:01:39;2.43;;;1.80;;
11344;SDS011;5727;42.600;23.028;2023-04-01T13:04:29;2.23;;;1.97;;
11344;SDS011;5727;42.600;23.028;2023-04-01T13:07:14;1.80;;;1.70;;
11344;SDS011;5727;42.600;23.028;2023-04-01T13:09:50;1.60;;;1.50;;
11344;SDS011;5727;42.600;23.028;2023-04-01T13:12:29;1.80;;;1.70;;
11344;SDS011;5727;42.600;23.028;2023-04-01T13:15:20;1.53;;;1.43;;
11344;SDS011;5727;42.600;23.028;2023-04-01T13:17:53;2.43;;;1.93;;
11344;SDS011;5727;42.600;23.028;2023-04-01T13:20:28;2.00;;;1.47;;
11344;SDS011;5727;42.600;23.028;2023-04-01T13:23:11;2.37;;;1.60;;
11344;SDS011;5727;42.600;23.028;2023-04-01T13:25:47;1.53;;;1.20;;
11344;SDS011;5727;42.600;23.028;2023-04-01T13:28:22;1.90;;;1.03;;
11344;SDS011;5727;42.600;23.028;2023-04-01T13:30:54;2.07;;;0.67;;
11344;SDS011;5727;42.600;23.028;2023-04-01T13:33:30;1.43;;;0.60;;
11344;SDS011;5727;42.600;23.028;2023-04-01T13:36:10;1.20;;;0.80;;
11344;SDS011;5727;42.600;23.028;2023-04-01T13:38:50;0.97;;;0.70;;
11344;SDS011;5727;42.600;23.028;2023-04-01T13:41:57;1.10;;;0.47;;
11344;SDS011;5727;42.600;23.028;2023-04-01T13:44:40;1.70;;;0.60;;
11344;SDS011;5727;42.600;23.028;2023-04-01T13:47:27;2.20;;;0.57;;
11344;SDS011;5727;42.600;23.028;2023-04-01T13:50:17;1.60;;;1.00;;
11344;SDS011;5727;42.600;23.028;2023-04-01T13:55:54;1.97;;;0.50;;
11344;SDS011;5727;42.600;23.028;2023-04-01T13:58:30;2.53;;;0.60;;
11344;SDS011;5727;42.600;23.028;2023-04-01T14:01:12;2.80;;;1.70;;
11344;SDS011;5727;42.600;23.028;2023-04-01T14:03:59;2.80;;;0.80;;
11344;SDS011;5727;42.600;23.028;2023-04-01T14:06:38;3.77;;;1.47;;
11344;SDS011;5727;42.600;23.028;2023-04-01T14:09:25;1.80;;;0.80;;
11344;SDS011;5727;42.600;23.028;2023-04-01T14:12:06;2.80;;;1.00;;
11344;SDS011;5727;42.600;23.028;2023-04-01T14:14:45;3.10;;;0.80;;
11344;SDS011;5727;42.600;23.028;2023-04-01T14:17:29;1.67;;;0.90;;
11344;SDS011;5727;42.600;23.028;2023-04-01T14:23:06;2.40;;;0.90;;
11344;SDS011;5727;42.600;23.028;2023-04-01T14:25:51;2.60;;;0.80;;
11344;SDS011;5727;42.600;23.028;2023-04-01T14:28:30;1.97;;;0.90;;
11344;SDS011;5727;42.600;23.028;2023-04-01T14:31:12;1.23;;;0.87;;
11344;SDS011;5727;42.600;23.028;2023-04-01T14:34:05;2.27;;;0.93;;
11344;SDS011;5727;42.600;23.028;2023-04-01T14:36:43;2.73;;;0.90;;
11344;SDS011;5727;42.600;23.028;2023-04-01T14:39:27;1.10;;;0.70;;
11344;SDS011;5727;42.600;23.028;2023-04-01T14:42:16;1.67;;;1.10;;
11344;SDS011;5727;42.600;23.028;2023-04-01T14:45:19;1.80;;;0.80;;
11344;SDS011;5727;42.600;23.028;2023-04-01T14:48:07;1.97;;;0.87;;
11344;SDS011;5727;42.600;23.028;2023-04-01T14:50:49;3.37;;;1.10;;
11344;SDS011;5727;42.600;23.028;2023-04-01T14:53:24;1.80;;;1.03;;
11344;SDS011;5727;42.600;23.028;2023-04-01T14:55:54;1.73;;;1.10;;
11344;SDS011;5727;42.600;23.028;2023-04-01T14:58:23;3.13;;;1.20;;
11344;SDS011;5727;42.600;23.028;2023-04-01T15:00:58;1.30;;;0.77;;
11344;SDS011;5727;42.600;23.028;2023-04-01T15:03:40;3.33;;;0.83;;
11344;SDS011;5727;42.600;23.028;2023-04-01T15:09:23;1.40;;;1.10;;
11344;SDS011;5727;42.600;23.028;2023-04-01T15:12:00;3.40;;;1.03;;
11344;SDS011;5727;42.600;23.028;2023-04-01T15:14:40;1.97;;;1.00;;
11344;SDS011;5727;42.600;23.028;2023-04-01T15:17:22;1.90;;;1.10;;
11344;SDS011;5727;42.600;23.028;2023-04-01T15:23:02;2.67;;;1.30;;
11344;SDS011;5727;42.600;23.028;2023-04-01T15:25:44;1.97;;;1.00;;
11344;SDS011;5727;42.600;23.028;2023-04-01T15:28:20;1.20;;;0.97;;
11344;SDS011;5727;42.600;23.028;2023-04-01T15:30:53;2.33;;;1.07;;
11344;SDS011;5727;42.600;23.028;2023-04-01T15:36:29;3.63;;;1.73;;
11344;SDS011;5727;42.600;23.028;2023-04-01T15:39:09;2.20;;;1.47;;
11344;SDS011;5727;42.600;23.028;2023-04-01T15:41:43;3.60;;;2.00;;
11344;SDS011;5727;42.600;23.028;2023-04-01T15:44:40;1.17;;;0.80;;
11344;SDS011;5727;42.600;23.028;2023-04-01T15:47:27;2.40;;;0.87;;
11344;SDS011;5727;42.600;23.028;2023-04-01T15:50:02;0.90;;;0.90;;
11344;SDS011;5727;42.600;23.028;2023-04-01T15:52:49;1.47;;;1.37;;
11344;SDS011;5727;42.600;23.028;2023-04-01T15:55:27;1.43;;;1.33;;
11344;SDS011;5727;42.600;23.028;2023-04-01T15:58:06;1.37;;;1.37;;
11344;SDS011;5727;42.600;23.028;2023-04-01T16:00:56;1.53;;;1.47;;
11344;SDS011;5727;42.600;23.028;2023-04-01T16:03:36;1.87;;;1.77;;
11344;SDS011;5727;42.600;23.028;2023-04-01T16:09:21;2.00;;;1.90;;
11344;SDS011;5727;42.600;23.028;2023-04-01T16:12:03;2.00;;;1.90;;
11344;SDS011;5727;42.600;23.028;2023-04-01T16:14:39;1.93;;;1.80;;
11344;SDS011;5727;42.600;23.028;2023-04-01T16:17:16;2.80;;;2.23;;
11344;SDS011;5727;42.600;23.028;2023-04-01T16:20:02;2.60;;;2.40;;
11344;SDS011;5727;42.600;23.028;2023-04-01T16:22:44;2.87;;;2.57;;
11344;SDS011;5727;42.600;23.028;2023-04-01T16:25:17;2.90;;;2.70;;
11344;SDS011;5727;42.600;23.028;2023-04-01T16:27:56;4.20;;;3.00;;
11344;SDS011;5727;42.600;23.028;2023-04-01T16:30:35;2.70;;;2.50;;
11344;SDS011;5727;42.600;23.028;2023-04-01T16:33:04;2.90;;;2.70;;
11344;SDS011;5727;42.600;23.028;2023-04-01T16:35:41;2.10;;;2.00;;
11344;SDS011;5727;42.600;23.028;2023-04-01T16:38:18;2.87;;;2.67;;
11344;SDS011;5727;42.600;23.028;2023-04-01T16:40:52;2.10;;;2.00;;
11344;SDS011;5727;42.600;23.028;2023-04-01T16:43:35;2.83;;;2.63;;
11344;SDS011;5727;42.600;23.028;2023-04-01T16:46:17;2.40;;;2.20;;
11344;SDS011;5727;42.600;23.028;2023-04-01T16:48:57;2.70;;;2.50;;
11344;SDS011;5727;42.600;23.028;2023-04-01T16:51:31;2.63;;;2.43;;
11344;SDS011;5727;42.600;23.028;2023-04-01T16:54:05;2.67;;;2.40;;
11344;SDS011;5727;42.600;23.028;2023-04-01T16:56:39;2.53;;;2.33;;
11344;SDS011;5727;42.600;23.028;2023-04-01T16:59:14;2.20;;;2.00;;
11344;SDS011;5727;42.600;23.028;2023-04-01T17:01:47;2.20;;;2.10;;
11344;SDS011;5727;42.600;23.028;2023-04-01T17:04:19;2.50;;;2.30;;
11344;SDS011;5727;42.600;23.028;2023-04-01T17:06:56;2.33;;;2.20;;
11344;SDS011;5727;42.600;23.028;2023-04-01T17:09:40;2.40;;;2.20;;
11344;SDS011;5727;42.600;23.028;2023-04-01T17:12:17;2.27;;;2.17;;
11344;SDS011;5727;42.600;23.028;2023-04-01T17:14:52;2.50;;;2.30;;
11344;SDS011;5727;42.600;23.028;2023-04-01T17:17:29;2.47;;;2.30;;
11344;SDS011;5727;42.600;23.028;2023-04-01T17:20:10;2.67;;;2.50;;
11344;SDS011;5727;42.600;23.028;2023-04-01T17:22:43;2.50;;;2.30;;
11344;SDS011;5727;42.600;23.028;2023-04-01T17:28:06;2.30;;;2.10;;
11344;SDS011;5727;42.600;23.028;2023-04-01T17:30:46;2.20;;;2.10;;